Terminal Aerodrome Forecast
Issued by NWS

Home | Current Version | Previous Version | Text Only | Print | Product List | Glossary On
Versions: 1 2 3 4 5 6 7 8 9 10 11 12 13 14 15 16 17 18 19 20 21 22 23 24 25 26 27
377
FTUS41 KOKX 241722
TAFHPN
TAF
KHPN 241722Z 2418/2518 21008G18KT P6SM OVC080
     FM241900 20011G17KT P6SM OVC040
     FM242200 20008KT P6SM OVC040
     FM250300 23008KT P6SM SCT040 BKN080
     FM251500 26005KT 6SM BR OVC050
     FM251700 32006KT 4SM BR OVC015
      AMD NOT SKED=

USA.gov is the U.S. government's official web portal to all federal, state and local government web resources and services.